Time;durP1;ratioP1;P1;durP2;ratioP2;P2;SDS_P1;SDS_P2;PMS_P1;PMS_P2;Temp;Humidity;BMP_temperature;BMP_pressure;BME280_temperature;BME280_humidity;BME280_pressure;Samples;Min_cycle;Max_cycle;Signal;HPM_P1;HPM_P2
2021/07/06 09:01:39;;;;;;;752.97;705.50;;;;;;;;;;5091319;27;20580;-69
2021/07/06 09:04:06;;;;;;;840.65;785.92;;;;;;;;;;5091047;28;20172;-69
2021/07/06 09:06:54;;;;;;;949.15;883.53;;;;;;;;;;5091095;28;20178;-69
2021/07/06 09:09:21;;;;;;;1002.97;930.88;;;;;;;;;;5091110;28;20167;-69
2021/07/06 09:11:47;;;;;;;1042.45;964.97;;;;;;;;;;5090938;28;20180;-69
2021/07/06 09:14:13;;;;;;;1117.65;999.90;;;;;;;;;;5091156;28;20168;-69
2021/07/06 09:16:40;;;;;;;1150.28;999.90;;;18.30;99.90;;;;;;5090863;28;20178;-69
2021/07/06 09:19:23;;;;;;;1194.50;999.90;;;18.20;99.90;;;;;;5090956;28;20245;-69
2021/07/06 09:22:13;;;;;;;1190.60;999.90;;;18.30;99.90;;;;;;5090936;28;20183;-69
2021/07/06 09:24:40;;;;;;;1191.70;999.90;;;18.30;99.90;;;;;;5090751;28;20641;-69
2021/07/06 09:27:29;;;;;;;1231.05;999.90;;;18.30;99.90;;;;;;5090770;28;20184;-69
2021/07/06 09:30:12;;;;;;;1193.47;999.90;;;18.30;99.90;;;;;;5090788;28;20508;-69
2021/07/06 09:32:41;;;;;;;1253.38;999.90;;;18.40;99.90;;;;;;5090707;28;20168;-69
2021/07/06 09:35:08;;;;;;;1274.13;999.90;;;18.50;99.90;;;;;;5090678;28;20175;-69
2021/07/06 09:38:05;;;;;;;1272.93;999.90;;;18.50;99.90;;;;;;5090594;28;20176;-69
2021/07/06 09:40:35;;;;;;;1274.60;999.90;;;18.60;99.90;;;;;;5090529;28;20399;-69
2021/07/06 09:43:24;;;;;;;1320.13;999.90;;;18.60;99.90;;;;;;5090393;28;20168;-69
2021/07/06 09:46:09;;;;;;;1308.45;999.90;;;18.70;99.90;;;;;;5090435;28;20164;-69
2021/07/06 09:48:43;;;;;;;1298.65;999.90;;;18.70;99.90;;;;;;5090330;28;20171;-69
2021/07/06 09:51:17;;;;;;;1317.88;999.90;;;18.80;99.90;;;;;;5089219;28;20724;-70
2021/07/06 09:53:48;;;;;;;1339.65;999.90;;;18.90;99.90;;;;;;5090238;28;20170;-69
2021/07/06 09:56:16;;;;;;;1344.70;999.90;;;18.90;99.90;;;;;;5090044;28;20174;-70
2021/07/06 09:59:00;;;;;;;1354.05;999.90;;;18.90;99.90;;;;;;5090301;28;20195;-70
2021/07/06 10:01:27;;;;;;;1327.95;999.90;;;19.00;99.90;;;;;;5089936;28;20293;-70
2021/07/06 10:03:55;;;;;;;1339.40;999.90;;;19.00;99.90;;;;;;5090189;28;20164;-69
2021/07/06 10:06:23;;;;;;;1335.70;999.90;;;19.00;99.90;;;;;;5090095;28;20519;-70
2021/07/06 10:08:50;;;;;;;1317.38;999.90;;;18.90;99.90;;;;;;5089980;28;20644;-69
2021/07/06 10:11:16;;;;;;;1333.78;999.90;;;18.90;99.90;;;;;;5086495;28;20179;-70
2021/07/06 10:13:42;;;;;;;1345.35;999.90;;;18.90;99.90;;;;;;5076457;28;20581;-70
2021/07/06 10:16:07;;;;;;;1354.68;999.90;;;18.90;99.90;;;;;;5076458;28;20172;-70
2021/07/06 10:18:35;;;;;;;1353.35;999.90;;;19.00;99.90;;;;;;5076356;28;20167;-70
2021/07/06 10:21:01;;;;;;;1333.30;999.90;;;19.00;99.90;;;;;;5076443;28;20196;-70
2021/07/06 10:23:28;;;;;;;1355.68;999.90;;;19.00;99.90;;;;;;5076458;28;20168;-70
2021/07/06 10:25:56;;;;;;;1380.97;999.90;;;19.10;99.90;;;;;;5076210;28;20519;-70
2021/07/06 10:28:25;;;;;;;1375.10;999.90;;;19.20;99.90;;;;;;5076023;28;20192;-70
2021/07/06 10:30:50;;;;;;;1385.18;999.90;;;19.30;99.90;;;;;;5076128;28;20168;-70
2021/07/06 10:33:31;;;;;;;1390.32;999.90;;;19.40;99.90;;;;;;5076269;28;20174;-67
2021/07/06 10:35:58;;;;;;;1364.53;999.90;;;19.50;99.90;;;;;;5074995;28;20172;-67
2021/07/06 10:38:27;;;;;;;1353.20;999.90;;;19.60;99.90;;;;;;5076127;28;20257;-67
2021/07/06 10:41:16;;;;;;;1386.63;999.90;;;19.70;99.90;;;;;;5075878;28;20199;-67
2021/07/06 10:43:44;;;;;;;1331.18;999.90;;;19.70;99.90;;;;;;5075991;28;20164;-67
2021/07/06 10:46:31;;;;;;;1349.95;999.90;;;19.80;99.90;;;;;;5075691;28;20171;-67
2021/07/06 10:49:02;;;;;;;1310.47;999.90;;;19.90;99.90;;;;;;5074559;28;20221;-67
2021/07/06 10:51:34;;;;;;;1320.57;999.90;;;19.70;99.90;;;;;;5075723;28;20190;-67
2021/07/06 10:54:07;;;;;;;1305.25;999.90;;;19.90;99.90;;;;;;5075753;28;20698;-67
2021/07/06 10:56:34;;;;;;;1267.53;999.90;;;19.90;99.90;;;;;;5075626;28;20176;-67
2021/07/06 10:59:02;;;;;;;1266.80;999.90;;;19.60;99.90;;;;;;5075772;28;20656;-67
2021/07/06 11:01:48;;;;;;;1272.82;999.90;;;19.60;99.90;;;;;;5075233;28;20255;-67
2021/07/06 11:04:41;;;;;;;1246.97;999.90;;;19.70;99.90;;;;;;5074304;28;20199;-67
2021/07/06 11:07:11;;;;;;;1266.00;999.90;;;19.90;99.90;;;;;;5074178;28;20209;-67
2021/07/06 11:09:37;;;;;;;1230.35;999.90;;;20.10;99.90;;;;;;5074230;28;20175;-67
2021/07/06 11:12:19;;;;;;;1265.25;999.90;;;20.30;99.90;;;;;;5075437;28;20863;-67
2021/07/06 11:14:55;;;;;;;1266.07;999.90;;;20.20;99.90;;;;;;5075293;28;20195;-67
2021/07/06 11:17:37;;;;;;;1118.32;999.90;;;20.70;99.90;;;;;;5075191;28;20172;-67
2021/07/06 11:20:04;;;;;;;1151.78;999.90;;;20.50;99.90;;;;;;5075040;28;20199;-67
2021/07/06 11:22:49;;;;;;;1099.78;999.90;;;20.70;99.90;;;;;;5074739;28;20625;-67
2021/07/06 11:25:34;;;;;;;1119.25;999.90;;;20.80;99.90;;;;;;5073538;28;20234;-70
2021/07/06 11:28:10;;;;;;;1111.00;999.90;;;20.70;99.90;;;;;;5075188;28;20637;-69
2021/07/06 11:30:56;;;;;;;1140.38;999.90;;;20.60;99.90;;;;;;5075118;28;20175;-70
2021/07/06 11:33:31;;;;;;;953.40;887.05;;;20.40;99.90;;;;;;5074854;28;20207;-70
2021/07/06 11:36:02;;;;;;;1018.40;943.50;;;20.30;99.90;;;;;;5074842;28;20254;-69
2021/07/06 11:38:30;;;;;;;1050.03;972.40;;;20.10;99.90;;;;;;5073487;28;20489;-69
2021/07/06 11:40:59;;;;;;;955.28;889.25;;;20.40;99.90;;;;;;5074573;28;20661;-70
2021/07/06 11:43:26;;;;;;;853.10;797.47;;;20.60;99.90;;;;;;5074755;28;20165;-69
2021/07/06 11:45:54;;;;;;;744.78;698.63;;;21.20;99.90;;;;;;5074547;28;20164;-70
2021/07/06 11:48:23;;;;;;;766.40;718.92;;;20.70;99.90;;;;;;5074692;28;20656;-70
2021/07/06 11:50:49;;;;;;;823.10;770.40;;;20.70;99.90;;;;;;5074582;28;20163;-69
2021/07/06 11:53:22;;;;;;;802.80;752.70;;;20.90;99.90;;;;;;5074571;28;20255;-69
2021/07/06 11:55:48;;;;;;;776.47;728.92;;;20.80;99.90;;;;;;5073267;28;20172;-69
2021/07/06 11:58:14;;;;;;;841.92;788.90;;;21.00;99.90;;;;;;5074344;28;20175;-69
2021/07/06 12:00:41;;;;;;;596.38;563.30;;;21.30;99.90;;;;;;5074263;28;20223;-69
2021/07/06 12:03:25;;;;;;;563.03;532.53;;;21.50;99.90;;;;;;5074271;28;20246;-70
2021/07/06 12:06:01;;;;;;;441.80;419.70;;;21.30;99.90;;;;;;5074282;28;20183;-69
2021/07/06 12:08:28;;;;;;;504.13;477.90;;;21.10;99.90;;;;;;5074213;28;20170;-69
2021/07/06 12:10:54;;;;;;;655.75;617.40;;;21.10;99.90;;;;;;5074175;28;20509;-69
2021/07/06 12:13:20;;;;;;;678.88;638.55;;;20.40;99.90;;;;;;5074118;28;20222;-69
2021/07/06 12:15:46;;;;;;;499.83;474.20;;;20.60;99.90;;;;;;5074249;28;20350;-70
2021/07/06 12:18:13;;;;;;;589.70;557.15;;;21.30;99.90;;;;;;5074165;28;20171;-69
2021/07/06 12:20:39;;;;;;;481.55;457.27;;;21.40;99.90;;;;;;5073983;28;20217;-69
2021/07/06 12:23:04;;;;;;;421.48;400.83;;;21.90;99.90;;;;;;5073944;28;20161;-69
2021/07/06 12:25:30;;;;;;;376.65;358.77;;;21.70;99.90;;;;;;5073914;28;20167;-69
2021/07/06 12:27:57;;;;;;;442.15;420.35;;;21.60;99.90;;;;;;5073842;28;20699;-69
2021/07/06 12:30:23;;;;;;;460.92;437.92;;;21.70;99.90;;;;;;5073914;28;20203;-69
2021/07/06 12:33:08;;;;;;;477.30;452.67;;;21.40;99.90;;;;;;5074123;28;20179;-69
2021/07/06 12:35:34;;;;;;;516.60;489.58;;;21.20;99.90;;;;;;5073649;28;20171;-70
2021/07/06 12:38:03;;;;;;;458.02;434.85;;;21.90;99.90;;;;;;5073691;28;20632;-70
2021/07/06 12:40:30;;;;;;;486.23;461.02;;;21.50;99.90;;;;;;5073693;28;20617;-69
2021/07/06 12:42:57;;;;;;;489.05;463.75;;;21.20;99.90;;;;;;5072554;28;20230;-69
2021/07/06 12:45:31;;;;;;;561.83;531.22;;;21.70;99.90;;;;;;5072588;28;20506;-70
2021/07/06 12:47:56;;;;;;;589.65;556.83;;;21.40;99.90;;;;;;5073848;28;20168;-70
2021/07/06 12:50:23;;;;;;;434.08;412.50;;;21.60;99.90;;;;;;5073789;28;20486;-70
2021/07/06 12:52:51;;;;;;;395.23;376.05;;;21.80;99.90;;;;;;5073820;28;20248;-69
2021/07/06 12:55:18;;;;;;;706.67;663.85;;;21.70;99.90;;;;;;5073809;28;20248;-70
2021/07/06 12:57:46;;;;;;;578.10;546.00;;;21.90;99.90;;;;;;5073614;28;20168;-70
2021/07/06 13:00:18;;;;;;;499.25;473.05;;;22.20;99.90;;;;;;5073364;28;20585;-70
2021/07/06 13:02:46;;;;;;;413.02;392.50;;;22.10;99.90;;;;;;5073579;28;20200;-70
2021/07/06 13:05:25;;;;;;;298.15;284.45;;;22.30;99.90;;;;;;5073476;28;20168;-70
2021/07/06 13:07:51;;;;;;;346.75;330.45;;;22.50;99.90;;;;;;5073458;28;20170;-70
2021/07/06 13:10:30;;;;;;;306.98;292.85;;;22.30;99.90;;;;;;5073402;28;20254;-69
2021/07/06 13:13:06;;;;;;;268.35;256.17;;;22.20;99.90;;;;;;5073667;28;20168;-70
2021/07/06 13:15:38;;;;;;;304.52;290.52;;;22.40;99.90;;;;;;5073258;28;20254;-70
2021/07/06 13:18:06;;;;;;;339.55;323.60;;;22.30;99.90;;;;;;5073367;28;20171;-69
2021/07/06 13:20:40;;;;;;;255.05;243.52;;;22.60;99.90;;;;;;5073381;28;20203;-70
2021/07/06 13:23:06;;;;;;;314.08;299.55;;;22.50;99.90;;;;;;5073503;28;20162;-68
2021/07/06 13:25:33;;;;;;;274.35;261.92;;;22.50;99.90;;;;;;5073406;28;20170;-68
2021/07/06 13:28:00;;;;;;;234.70;224.15;;;22.60;99.90;;;;;;5073103;28;20211;-68
2021/07/06 13:30:28;;;;;;;254.18;242.68;;;22.90;99.90;;;;;;5073151;28;20251;-65
2021/07/06 13:32:55;;;;;;;254.07;242.60;;;22.90;99.90;;;;;;5072055;28;20176;-65
2021/07/06 13:35:21;;;;;;;226.30;216.13;;;22.70;99.90;;;;;;5073436;28;20168;-68
2021/07/06 13:37:48;;;;;;;265.60;253.65;;;22.80;99.90;;;;;;5073150;28;20176;-68
2021/07/06 13:40:16;;;;;;;234.18;223.60;;;23.00;99.90;;;;;;5073087;28;20649;-68
2021/07/06 13:42:42;;;;;;;251.60;240.25;;;22.90;99.90;;;;;;5073098;28;20653;-68
2021/07/06 13:45:11;;;;;;;187.40;178.68;;;23.30;99.90;;;;;;5073057;28;20164;-68
2021/07/06 13:47:37;;;;;;;156.43;149.38;;;23.10;99.90;;;;;;5074331;28;20518;-68
2021/07/06 13:50:05;;;;;;;207.35;198.10;;;23.40;99.90;;;;;;5076957;28;20168;-68
2021/07/06 13:52:31;;;;;;;250.68;239.43;;;22.80;99.90;;;;;;5076855;28;20660;-68
2021/07/06 13:54:58;;;;;;;228.43;218.18;;;23.10;99.90;;;;;;5076753;28;20180;-68
2021/07/06 13:57:24;;;;;;;196.77;187.93;;;23.30;99.90;;;;;;5076711;28;20160;-68
2021/07/06 13:59:53;;;;;;;144.35;137.93;;;24.00;99.90;;;;;;5076320;28;20337;-68
2021/07/06 14:02:18;;;;;;;224.77;214.48;;;23.90;99.90;;;;;;5076740;28;20160;-68
2021/07/06 14:04:48;;;;;;;171.00;163.35;;;23.60;99.90;;;;;;5076447;28;20178;-68
2021/07/06 14:07:15;;;;;;;164.38;156.95;;;23.70;99.90;;;;;;5076480;28;20243;-68
2021/07/06 14:09:41;;;;;;;97.63;93.38;;;23.70;99.90;;;;;;5076330;28;20168;-68
2021/07/06 14:12:07;;;;;;;89.75;85.72;;;23.50;99.90;;;;;;5076270;28;20235;-68
2021/07/06 14:14:32;;;;;;;171.40;163.73;;;23.10;99.90;;;;;;5076318;28;20620;-68
2021/07/06 14:16:58;;;;;;;230.98;220.60;;;23.20;99.90;;;;;;5076460;28;20202;-68
2021/07/06 14:19:23;;;;;;;207.70;198.45;;;23.20;99.90;;;;;;5076161;28;20171;-68
2021/07/06 14:21:49;;;;;;;224.82;214.80;;;22.90;99.90;;;;;;5076243;28;20164;-68
2021/07/06 14:24:16;;;;;;;213.02;203.52;;;22.90;99.90;;;;;;5076244;28;20180;-68
2021/07/06 14:26:42;;;;;;;177.40;169.13;;;22.90;99.90;;;;;;5076041;28;20226;-68
2021/07/06 14:29:08;;;;;;;250.32;239.10;;;22.70;99.90;;;;;;5076095;28;20247;-66
2021/07/06 14:31:33;;;;;;;218.65;208.85;;;22.70;99.90;;;;;;5076071;28;20250;-66
2021/07/06 14:33:59;;;;;;;198.73;189.85;;;22.80;99.90;;;;;;5075934;28;20585;-65
2021/07/06 14:36:24;;;;;;;194.32;185.63;;;22.40;99.90;;;;;;5076008;28;20172;-66
2021/07/06 14:38:50;;;;;;;208.65;199.20;;;22.60;99.90;;;;;;5075966;28;20179;-66
2021/07/06 14:41:16;;;;;;;233.77;223.27;;;22.20;99.90;;;;;;5076081;28;20205;-65
2021/07/06 14:43:45;;;;;;;239.50;228.77;;;22.30;99.90;;;;;;5075862;28;20688;-65
2021/07/06 14:46:11;;;;;;;232.07;221.68;;;22.50;99.90;;;;;;5075738;28;20264;-65
2021/07/06 14:48:37;;;;;;;231.52;221.10;;;22.30;99.90;;;;;;5075874;28;20545;-65
2021/07/06 14:51:03;;;;;;;214.23;204.65;;;22.30;99.90;;;;;;5075551;28;20257;-65
2021/07/06 14:53:29;;;;;;;235.40;224.82;;;22.30;99.90;;;;;;5075588;28;20175;-65
2021/07/06 14:55:56;;;;;;;269.92;257.77;;;22.50;99.90;;;;;;5075700;28;20167;-66
2021/07/06 14:58:21;;;;;;;260.20;248.50;;;22.60;99.90;;;;;;5075667;28;20186;-66
2021/07/06 15:00:47;;;;;;;224.88;214.82;;;22.80;99.90;;;;;;5075328;28;20255;-66
2021/07/06 15:03:12;;;;;;;262.13;250.35;;;22.70;99.90;;;;;;5075608;28;20275;-66
2021/07/06 15:05:38;;;;;;;213.25;203.73;;;23.00;99.90;;;;;;5075489;28;20579;-66
2021/07/06 15:08:04;;;;;;;227.05;216.95;;;23.00;99.90;;;;;;5075440;28;20178;-65
2021/07/06 15:10:30;;;;;;;203.85;194.75;;;22.80;99.90;;;;;;5075539;28;20269;-65
2021/07/06 15:12:57;;;;;;;199.52;190.52;;;22.70;99.90;;;;;;5075584;28;20525;-66
2021/07/06 15:15:26;;;;;;;196.50;187.45;;;22.60;99.90;;;;;;5075436;28;20640;-66
2021/07/06 15:17:52;;;;;;;218.05;208.30;;;22.30;99.90;;;;;;5075213;28;20179;-66
2021/07/06 15:20:21;;;;;;;236.95;226.25;;;22.50;99.90;;;;;;5073965;28;20599;-66
2021/07/06 15:22:47;;;;;;;234.18;223.68;;;22.80;99.90;;;;;;5075044;28;20244;-66
2021/07/06 15:25:13;;;;;;;171.65;163.95;;;22.90;99.90;;;;;;5075152;28;20636;-65
2021/07/06 15:27:38;;;;;;;218.05;207.90;;;22.80;99.90;;;;;;5075027;28;20164;-65
2021/07/06 15:30:05;;;;;;;212.55;203.02;;;22.70;99.90;;;;;;5074980;28;20196;-66
2021/07/06 15:32:30;;;;;;;206.10;196.85;;;22.40;99.90;;;;;;5073787;28;20175;-65
2021/07/06 15:34:57;;;;;;;189.05;180.55;;;22.20;99.90;;;;;;5074874;28;20195;-65
2021/07/06 15:37:22;;;;;;;195.30;186.52;;;21.60;99.90;;;;;;5074750;28;20168;-65
2021/07/06 15:39:48;;;;;;;192.23;183.55;;;21.60;99.90;;;;;;5073569;28;20174;-65
2021/07/06 15:42:13;;;;;;;215.38;205.73;;;21.60;99.90;;;;;;5073542;28;20233;-65
2021/07/06 15:44:39;;;;;;;224.02;213.95;;;21.40;99.90;;;;;;5074702;28;20174;-65
2021/07/06 15:47:05;;;;;;;307.70;293.65;;;21.30;99.90;;;;;;5074734;28;20172;-65
2021/07/06 15:49:30;;;;;;;290.83;277.50;;;21.40;99.90;;;;;;5074405;28;20172;-66
2021/07/06 16:32:17;;;;;;;305.40;291.20;;;19.40;99.90;;;;;;5091186;27;21017;-68
2021/07/06 16:34:42;;;;;;;357.48;340.55;;;19.50;99.90;;;;;;5091189;28;20426;-68
2021/07/06 16:37:10;;;;;;;389.10;370.25;;;19.60;99.90;;;;;;5091124;28;20175;-68
2021/07/06 16:39:37;;;;;;;353.10;336.25;;;19.60;99.90;;;;;;5091187;28;20179;-68
2021/07/06 16:42:05;;;;;;;359.10;341.75;;;;;;;;;;5091089;28;20664;-68
2021/07/06 16:44:33;;;;;;;369.13;351.25;;;19.80;99.90;;;;;;5091005;28;20530;-68
2021/07/06 16:46:59;;;;;;;396.75;377.38;;;20.50;99.90;;;;;;5091103;28;20192;-68
2021/07/06 16:49:24;;;;;;;438.42;416.40;;;20.10;99.90;;;;;;5090862;28;20613;-68
2021/07/06 17:58:12;;;;;;;380.73;362.50;;;;;;;;;;5054025;28;20199;-68
2021/07/06 18:00:40;;;;;;;395.05;375.92;;;;;;;;;;5054188;28;20204;-68
2021/07/06 18:05:49;;;;;;;364.05;346.65;;;;;;;;;;5054125;28;20633;-68
2021/07/06 18:08:16;;;;;;;356.60;339.75;;;;;;;;;;5053989;28;20645;-68
2021/07/06 18:10:44;;;;;;;371.35;353.77;;;;;;;;;;5069358;28;20207;-68
2021/07/06 18:13:11;;;;;;;335.73;320.15;;;20.70;99.90;;;;;;5075852;28;20309;-68
2021/07/06 18:15:37;;;;;;;336.23;320.58;;;20.60;99.90;;;;;;5075861;28;20160;-68
2021/07/06 18:18:05;;;;;;;352.13;335.65;;;20.70;99.90;;;;;;5075770;28;20182;-68
2021/07/06 18:20:31;;;;;;;339.67;323.98;;;20.60;99.90;;;;;;5075777;28;20159;-68
2021/07/06 18:22:56;;;;;;;349.95;333.67;;;20.40;99.90;;;;;;5075613;28;20560;-68
2021/07/06 18:25:22;;;;;;;358.27;341.55;;;20.30;99.90;;;;;;5075682;28;20172;-68
2021/07/06 18:27:48;;;;;;;359.10;342.33;;;20.20;99.90;;;;;;5075703;28;20609;-68
2021/07/06 18:30:14;;;;;;;330.33;315.08;;;20.30;99.90;;;;;;5075262;28;20288;-68
2021/07/06 18:32:40;;;;;;;317.02;302.50;;;20.10;99.90;;;;;;5075607;28;20303;-68
2021/07/06 18:35:08;;;;;;;375.92;358.08;;;20.00;99.90;;;;;;5075439;28;20271;-68
2021/07/06 18:37:33;;;;;;;345.48;328.85;;;20.20;99.90;;;;;;5075358;28;20168;-68
2021/07/06 18:39:59;;;;;;;325.40;310.25;;;20.10;99.90;;;;;;5075468;28;20247;-68
2021/07/06 18:42:25;;;;;;;274.45;261.98;;;20.70;99.90;;;;;;5075238;28;20175;-68
2021/07/06 18:44:51;;;;;;;283.42;270.45;;;21.00;99.90;;;;;;5075151;28;20213;-68
2021/07/06 18:47:18;;;;;;;284.65;271.67;;;20.80;99.90;;;;;;5075237;28;20528;-68
2021/07/06 18:49:46;;;;;;;277.42;264.77;;;20.60;99.90;;;;;;5075164;28;20175;-68
2021/07/06 18:52:12;;;;;;;294.40;281.00;;;20.30;99.90;;;;;;5075185;28;20198;-68
2021/07/06 18:54:38;;;;;;;275.67;263.13;;;20.20;99.90;;;;;;5074191;28;20168;-68
2021/07/06 18:57:04;;;;;;;306.40;292.13;;;20.00;99.90;;;;;;5074822;28;20195;-68
2021/07/06 18:59:30;;;;;;;279.48;266.75;;;19.80;99.90;;;;;;5074819;28;20164;-68
2021/07/06 19:01:55;;;;;;;320.45;305.58;;;19.60;99.90;;;;;;5074977;28;20692;-68
2021/07/06 19:04:21;;;;;;;315.55;300.92;;;19.50;99.90;;;;;;5074711;28;20217;-68
2021/07/06 19:06:48;;;;;;;332.58;317.08;;;19.50;99.90;;;;;;5074798;28;20165;-68
2021/07/06 19:09:13;;;;;;;369.25;351.65;;;19.40;99.90;;;;;;5074792;28;20190;-68
2021/07/06 19:11:40;;;;;;;380.02;361.70;;;19.30;99.90;;;;;;5073391;28;20192;-68
2021/07/06 19:14:06;;;;;;;393.45;374.23;;;19.30;99.90;;;;;;5074680;28;20652;-68
2021/07/06 19:16:31;;;;;;;394.80;375.25;;;19.20;99.90;;;;;;5074517;28;20160;-70
